createdAt,value
2023-02-23T00:03:12.894Z,13.33
2023-02-23T00:06:39.912Z,14.30
2023-02-23T00:09:53.846Z,16.30
2023-02-23T00:13:05.798Z,13.70
2023-02-23T00:16:05.859Z,12.75
2023-02-23T00:19:19.893Z,14.50
2023-02-23T00:22:34.877Z,13.90
2023-02-23T00:26:01.913Z,13.57
2023-02-23T00:29:13.927Z,13.57
2023-02-23T00:32:26.010Z,14.27
2023-02-23T00:35:37.892Z,14.30
2023-02-23T00:39:01.865Z,14.40
2023-02-23T00:42:15.989Z,14.80
2023-02-23T00:45:40.020Z,14.17
2023-02-23T00:48:39.970Z,13.50
2023-02-23T00:52:05.035Z,13.90
2023-02-23T00:55:05.026Z,14.43
2023-02-23T00:58:32.989Z,13.80
2023-02-23T01:01:45.013Z,14.30
2023-02-23T01:04:57.019Z,14.10
2023-02-23T01:07:58.975Z,14.60
2023-02-23T01:11:23.012Z,14.67
2023-02-23T01:14:37.043Z,15.00
2023-02-23T01:17:50.007Z,14.75
2023-02-23T01:21:02.063Z,15.07
2023-02-23T01:24:26.141Z,15.00
2023-02-23T01:27:39.077Z,15.27
2023-02-23T01:31:05.160Z,14.87
2023-02-23T01:34:18.127Z,15.13
2023-02-23T01:37:30.153Z,14.40
2023-02-23T01:40:32.056Z,14.27
2023-02-23T01:43:44.096Z,15.33
2023-02-23T01:46:58.153Z,14.17
2023-02-23T01:50:22.178Z,15.60
2023-02-23T01:53:34.223Z,15.03
2023-02-23T01:57:00.208Z,14.67
2023-02-23T02:00:12.177Z,15.00
2023-02-23T02:03:38.260Z,14.07
2023-02-23T02:06:50.119Z,14.70
2023-02-23T02:10:19.974Z,13.90
2023-02-23T02:13:44.247Z,15.67
2023-02-23T02:17:27.251Z,14.33
2023-02-23T02:20:45.228Z,14.55
2023-02-23T02:24:23.241Z,15.17
2023-02-23T02:27:38.300Z,14.23
2023-02-23T02:31:13.401Z,14.87
2023-02-23T02:34:45.299Z,14.50
2023-02-23T02:38:13.323Z,13.80
2023-02-23T02:41:26.257Z,14.45
2023-02-23T02:44:51.321Z,16.10
2023-02-23T02:48:19.318Z,13.77
2023-02-23T02:51:45.307Z,14.30
2023-02-23T02:55:02.369Z,15.25
2023-02-23T02:58:26.379Z,15.70
2023-02-23T03:01:44.097Z,15.40
2023-02-23T03:05:03.196Z,15.37
2023-02-23T03:08:21.133Z,16.80
2023-02-23T03:11:54.088Z,14.45
2023-02-23T03:15:23.468Z,15.03
2023-02-23T03:18:55.944Z,19.55
2023-02-23T03:22:15.003Z,15.00
2023-02-23T03:25:44.920Z,15.20
2023-02-23T03:29:16.886Z,14.87
2023-02-23T03:32:48.177Z,14.60
2023-02-23T03:36:05.800Z,16.77
2023-02-23T03:39:36.081Z,15.65
2023-02-23T03:42:52.979Z,14.65
2023-02-23T03:46:24.917Z,14.30
2023-02-23T03:49:55.040Z,16.00
2023-02-23T03:53:28.069Z,15.20
2023-02-23T03:56:48.976Z,15.00
2023-02-23T04:00:21.197Z,15.43
2023-02-23T04:03:53.405Z,14.77
2023-02-23T04:07:11.152Z,15.70
2023-02-23T04:10:41.411Z,14.50
2023-02-23T04:13:40.592Z,14.43
2023-02-23T04:16:51.664Z,14.40
2023-02-23T04:20:07.280Z,15.25
2023-02-23T04:23:19.625Z,15.60
2023-02-23T04:26:19.631Z,14.40
2023-02-23T04:29:43.657Z,15.93
2023-02-23T04:32:55.584Z,14.80
2023-02-23T04:36:23.640Z,18.80
2023-02-23T04:39:26.706Z,14.97
2023-02-23T04:42:38.723Z,15.70
2023-02-23T04:45:50.698Z,14.83
2023-02-23T04:49:03.739Z,16.60
2023-02-23T04:52:17.802Z,14.80
2023-02-23T04:55:42.665Z,14.85
2023-02-23T04:58:54.691Z,14.95
2023-02-23T05:02:07.784Z,14.97
2023-02-23T05:05:07.815Z,15.00
2023-02-23T05:08:33.777Z,14.70
2023-02-23T05:11:33.803Z,15.90
2023-02-23T05:14:45.820Z,14.77
2023-02-23T05:17:45.952Z,19.75
2023-02-23T05:20:58.836Z,15.80
2023-02-23T05:24:12.778Z,15.50
2023-02-23T05:27:26.760Z,14.40
2023-02-23T05:30:30.798Z,14.60
2023-02-23T05:33:43.083Z,16.80
2023-02-23T05:36:42.800Z,14.10
2023-02-23T05:40:11.916Z,16.25
2023-02-23T05:43:23.797Z,16.50
2023-02-23T05:46:47.909Z,16.15
2023-02-23T05:49:47.837Z,16.13
2023-02-23T05:52:59.881Z,14.70
2023-02-23T05:56:13.884Z,17.00
2023-02-23T05:59:26.964Z,16.85
2023-02-23T06:02:26.922Z,17.10
2023-02-23T06:05:41.012Z,16.45
2023-02-23T06:08:40.971Z,15.33
2023-02-23T06:12:05.938Z,16.15
2023-02-23T06:15:05.980Z,16.67
2023-02-23T06:18:30.022Z,15.87
2023-02-23T06:21:42.014Z,16.55
2023-02-23T06:24:54.018Z,17.77
2023-02-23T06:28:07.976Z,18.10
2023-02-23T06:31:25.986Z,19.90
2023-02-23T06:34:26.013Z,17.35
2023-02-23T06:37:41.086Z,16.23
2023-02-23T06:40:42.038Z,19.07
2023-02-23T06:44:09.109Z,17.05
2023-02-23T06:47:09.040Z,16.00
2023-02-23T06:50:23.145Z,17.03
2023-02-23T06:53:23.138Z,17.50
2023-02-23T06:56:47.099Z,14.40
2023-02-23T07:00:03.099Z,15.53
2023-02-23T07:03:15.090Z,16.77
2023-02-23T07:06:19.093Z,15.00
2023-02-23T07:09:43.108Z,15.85
2023-02-23T07:12:55.079Z,15.93
2023-02-23T07:16:24.180Z,15.70
2023-02-23T07:19:27.196Z,15.65
2023-02-23T07:22:40.073Z,15.30
2023-02-23T07:25:39.218Z,14.90
2023-02-23T07:28:53.355Z,15.57
2023-02-23T07:32:05.344Z,15.80
2023-02-23T07:35:31.150Z,15.10
2023-02-23T07:38:31.209Z,13.70
2023-02-23T07:41:55.272Z,15.73
2023-02-23T07:44:55.251Z,15.03
2023-02-23T07:48:22.222Z,14.80
2023-02-23T07:51:34.371Z,15.27
2023-02-23T07:54:46.344Z,15.00
2023-02-23T07:57:58.251Z,14.40
2023-02-23T08:01:22.436Z,15.53
2023-02-23T08:04:48.282Z,13.37
2023-02-23T08:07:48.370Z,14.75
2023-02-23T08:11:12.338Z,13.85
2023-02-23T08:14:24.328Z,14.37
2023-02-23T08:17:37.380Z,12.55
2023-02-23T08:20:51.347Z,13.90
2023-02-23T08:24:04.375Z,14.40
2023-02-23T08:27:16.335Z,14.87
2023-02-23T08:30:28.413Z,14.10
2023-02-23T08:33:28.388Z,13.75
2023-02-23T08:36:58.377Z,13.00
2023-02-23T08:40:01.410Z,13.65
2023-02-23T08:43:13.406Z,13.35
2023-02-23T08:46:13.541Z,13.97
2023-02-23T08:49:40.430Z,11.70
2023-02-23T08:52:54.402Z,14.10
2023-02-23T08:56:22.413Z,12.85
2023-02-23T08:59:49.501Z,12.25
2023-02-23T09:03:01.480Z,13.35
2023-02-23T09:06:13.572Z,14.00
2023-02-23T09:09:42.507Z,12.70
2023-02-23T09:12:42.504Z,12.53
2023-02-23T09:16:07.559Z,13.00
2023-02-23T09:19:07.509Z,13.15
2023-02-23T09:22:20.563Z,12.60
2023-02-23T09:25:34.528Z,13.20
2023-02-23T09:28:58.598Z,12.10
2023-02-23T09:31:58.670Z,12.00
2023-02-23T09:35:10.534Z,12.63
2023-02-23T09:38:10.633Z,11.43
2023-02-23T09:41:41.633Z,12.50
2023-02-23T09:45:05.561Z,12.95
2023-02-23T09:48:30.613Z,11.40
2023-02-23T09:51:42.635Z,13.13
2023-02-23T09:55:07.730Z,12.65
2023-02-23T09:58:21.690Z,12.67
2023-02-23T10:01:52.686Z,11.97
2023-02-23T10:05:16.720Z,13.17
2023-02-23T10:08:44.698Z,12.55
2023-02-23T10:12:09.731Z,12.37
2023-02-23T10:15:24.724Z,11.93
2023-02-23T10:18:49.722Z,13.20
2023-02-23T10:22:01.813Z,13.30
2023-02-23T10:25:27.878Z,12.40
2023-02-23T10:28:39.799Z,12.67
2023-02-23T10:32:05.856Z,12.80
2023-02-23T10:35:29.837Z,12.50
2023-02-23T10:38:42.828Z,10.90
2023-02-23T10:41:42.762Z,12.75
2023-02-23T10:45:07.845Z,12.10
2023-02-23T10:48:25.112Z,13.30
2023-02-23T10:51:49.858Z,12.93
2023-02-23T10:55:04.863Z,12.80
2023-02-23T10:58:29.827Z,12.93
2023-02-23T11:01:52.116Z,12.50
2023-02-23T11:05:10.805Z,12.30
2023-02-23T11:08:35.888Z,11.47
2023-02-23T11:11:47.892Z,11.87
2023-02-23T11:14:47.902Z,13.00
2023-02-23T11:18:11.886Z,12.40
2023-02-23T11:21:25.917Z,10.97
2023-02-23T11:24:49.895Z,12.35
2023-02-23T11:28:02.952Z,11.50
2023-02-23T11:31:26.997Z,11.10
2023-02-23T11:34:42.963Z,11.17
2023-02-23T11:38:09.008Z,11.10
2023-02-23T11:41:23.932Z,11.07
2023-02-23T11:44:47.941Z,11.57
2023-02-23T11:48:00.032Z,10.30
2023-02-23T11:51:23.935Z,11.20
2023-02-23T11:54:42.017Z,10.50
2023-02-23T11:57:53.984Z,11.07
2023-02-23T12:00:54.013Z,10.25
2023-02-23T12:04:18.087Z,11.55
2023-02-23T12:07:48.065Z,11.95
2023-02-23T12:11:14.019Z,9.67
2023-02-23T12:14:27.535Z,10.27
2023-02-23T12:17:52.101Z,10.80
2023-02-23T12:21:04.052Z,11.80
2023-02-23T12:24:35.125Z,11.50
2023-02-23T12:27:49.106Z,10.65
2023-02-23T12:31:15.360Z,11.50
2023-02-23T12:34:30.120Z,10.73
2023-02-23T12:37:55.166Z,12.20
2023-02-23T12:41:08.133Z,11.70
2023-02-23T12:44:35.185Z,12.03
2023-02-23T12:47:48.163Z,12.23
2023-02-23T12:51:13.151Z,12.10
2023-02-23T12:54:25.169Z,12.10
2023-02-23T12:57:52.229Z,13.27
2023-02-23T13:01:17.497Z,15.97
2023-02-23T13:04:47.265Z,14.30
2023-02-23T13:08:11.599Z,13.47
2023-02-23T13:11:25.252Z,13.45
2023-02-23T13:14:37.240Z,13.27
2023-02-23T13:18:03.215Z,14.10
2023-02-23T13:21:15.223Z,13.60
2023-02-23T13:24:39.282Z,14.95
2023-02-23T13:27:51.294Z,14.80
2023-02-23T13:31:05.708Z,14.57
2023-02-23T13:34:17.353Z,14.67
2023-02-23T13:37:41.483Z,15.45
2023-02-23T13:40:54.444Z,15.23
2023-02-23T13:44:18.320Z,14.10
2023-02-23T13:47:30.405Z,14.33
2023-02-23T13:50:56.399Z,13.90
2023-02-23T13:54:08.392Z,13.80
2023-02-23T13:57:36.408Z,13.93
2023-02-23T14:00:48.418Z,13.13
2023-02-23T14:04:13.531Z,13.40
2023-02-23T14:07:28.368Z,13.67
2023-02-23T14:10:53.470Z,12.07
2023-02-23T14:14:05.495Z,13.27
2023-02-23T14:17:36.454Z,13.60
2023-02-23T14:21:01.521Z,12.53
2023-02-23T14:24:30.442Z,12.43
2023-02-23T14:27:47.528Z,11.45
2023-02-23T14:31:17.872Z,12.63
2023-02-23T14:34:31.485Z,13.17
2023-02-23T14:37:56.513Z,11.07
2023-02-23T14:41:10.653Z,11.43
2023-02-23T14:44:36.507Z,13.20
2023-02-23T14:47:48.525Z,11.90
2023-02-23T14:51:16.539Z,11.33
2023-02-23T14:54:24.607Z,11.93
2023-02-23T14:57:51.594Z,13.20
2023-02-23T15:01:08.602Z,14.55
2023-02-23T15:04:33.661Z,12.00
2023-02-23T15:07:45.609Z,12.20
2023-02-23T15:11:09.619Z,12.97
2023-02-23T15:14:28.314Z,12.63
2023-02-23T15:17:51.625Z,12.33
2023-02-23T15:21:03.667Z,13.10
2023-02-23T15:24:28.624Z,12.70
2023-02-23T15:27:44.632Z,11.05
2023-02-23T15:31:10.702Z,7.80
2023-02-23T15:34:22.624Z,8.83
2023-02-23T15:37:56.588Z,9.70
2023-02-23T15:41:01.662Z,7.70
2023-02-23T15:44:42.368Z,6.50
2023-02-23T15:47:47.722Z,6.67
2023-02-23T15:51:11.708Z,5.40
2023-02-23T15:54:23.808Z,4.73
2023-02-23T15:57:47.805Z,5.13
2023-02-23T16:01:00.748Z,5.13
2023-02-23T16:04:26.768Z,3.97
2023-02-23T16:07:41.959Z,4.40
2023-02-23T16:11:06.837Z,4.00
2023-02-23T16:14:18.765Z,4.50
2023-02-23T16:17:46.826Z,3.63
2023-02-23T16:21:00.802Z,3.03
2023-02-23T16:24:24.804Z,3.53
2023-02-23T16:27:24.832Z,3.60
2023-02-23T16:30:58.034Z,3.60
2023-02-23T16:34:09.816Z,4.07
2023-02-23T16:37:39.865Z,3.73
2023-02-23T16:40:51.847Z,3.67
2023-02-23T16:44:16.052Z,3.95
2023-02-23T16:47:36.937Z,3.67
2023-02-23T16:51:03.924Z,3.30
2023-02-23T16:54:17.946Z,2.80
2023-02-23T16:57:29.968Z,3.55
2023-02-23T17:00:45.960Z,3.65
2023-02-23T17:04:04.001Z,2.47
2023-02-23T17:07:04.067Z,3.33
2023-02-23T17:10:30.016Z,3.15
2023-02-23T17:13:41.953Z,4.05
2023-02-23T17:16:54.027Z,3.47
2023-02-23T17:19:54.048Z,2.87
2023-02-23T17:23:21.061Z,2.47
2023-02-23T17:26:28.077Z,3.15
2023-02-23T17:29:57.095Z,3.10
2023-02-23T17:33:09.178Z,2.77
2023-02-23T17:36:33.140Z,3.03
2023-02-23T17:39:33.094Z,3.10
2023-02-23T17:42:47.082Z,2.50
2023-02-23T17:46:00.087Z,2.63
2023-02-23T17:49:24.096Z,3.15
2023-02-23T17:52:24.152Z,3.20
2023-02-23T17:55:48.199Z,2.55
2023-02-23T17:59:01.075Z,2.60
2023-02-23T18:02:26.185Z,3.23
2023-02-23T18:05:38.191Z,2.40
2023-02-23T18:08:38.121Z,2.27
2023-02-23T18:11:51.120Z,2.97
2023-02-23T18:14:51.210Z,2.13
2023-02-23T18:18:20.224Z,2.53
2023-02-23T18:21:34.181Z,2.23
2023-02-23T18:25:02.215Z,2.45
2023-02-23T18:28:15.210Z,2.10
2023-02-23T18:31:39.319Z,2.23
2023-02-23T18:34:53.263Z,2.60
2023-02-23T18:38:05.291Z,2.50
2023-02-23T18:41:17.339Z,2.85
2023-02-23T18:44:41.284Z,2.90
2023-02-23T18:47:41.300Z,2.03
2023-02-23T18:51:08.282Z,2.03
2023-02-23T18:54:08.339Z,1.97
2023-02-23T18:57:21.349Z,2.83
2023-02-23T19:00:34.451Z,2.40
2023-02-23T19:03:48.343Z,2.60
2023-02-23T19:07:02.341Z,2.70
2023-02-23T19:10:15.354Z,2.07
2023-02-23T19:13:15.539Z,2.53
2023-02-23T19:16:40.379Z,1.85
2023-02-23T19:19:40.462Z,2.03
2023-02-23T19:23:06.422Z,2.10
2023-02-23T19:26:06.435Z,2.00
2023-02-23T19:29:33.441Z,2.17
2023-02-23T19:32:33.634Z,1.77
2023-02-23T19:35:45.507Z,2.00
2023-02-23T19:38:58.474Z,1.97
2023-02-23T19:42:11.470Z,2.45
2023-02-23T19:45:23.511Z,2.00
2023-02-23T19:48:35.481Z,2.37
2023-02-23T19:51:47.591Z,1.93
2023-02-23T19:55:14.530Z,1.60
2023-02-23T19:58:14.495Z,1.83
2023-02-23T20:01:38.497Z,2.30
2023-02-23T20:04:50.621Z,2.20
2023-02-23T20:08:02.509Z,1.90
2023-02-23T20:11:31.515Z,1.90
2023-02-23T20:14:31.588Z,1.80
2023-02-23T20:17:43.538Z,1.80
2023-02-23T20:20:43.607Z,2.30
2023-02-23T20:24:07.604Z,1.90
2023-02-23T20:27:20.548Z,1.30
2023-02-23T20:30:44.726Z,2.05
2023-02-23T20:33:56.560Z,1.50
2023-02-23T20:37:08.594Z,1.95
2023-02-23T20:40:08.602Z,1.45
2023-02-23T20:43:34.607Z,2.15
2023-02-23T20:46:34.716Z,1.80
2023-02-23T20:49:47.718Z,1.83
2023-02-23T20:52:47.744Z,1.70
2023-02-23T20:55:59.697Z,1.53
2023-02-23T20:59:12.701Z,1.93
2023-02-23T21:02:39.672Z,2.00
2023-02-23T21:05:52.731Z,1.70
2023-02-23T21:09:17.725Z,2.07
2023-02-23T21:12:17.766Z,1.40
2023-02-23T21:15:43.761Z,1.63
2023-02-23T21:18:55.788Z,1.80
2023-02-23T21:22:22.798Z,1.37
2023-02-23T21:25:34.790Z,1.70
2023-02-23T21:28:46.838Z,1.67
2023-02-23T21:32:00.880Z,2.03
2023-02-23T21:35:12.817Z,1.47
2023-02-23T21:38:15.794Z,1.33
2023-02-23T21:41:39.891Z,1.30
2023-02-23T21:44:51.856Z,1.80
2023-02-23T21:48:17.880Z,1.73
2023-02-23T21:51:29.858Z,1.23
2023-02-23T21:54:41.881Z,1.90
2023-02-23T21:57:53.838Z,1.70
2023-02-23T22:01:17.935Z,1.53
2023-02-23T22:04:42.936Z,1.70
2023-02-23T22:07:42.935Z,1.60
2023-02-23T22:10:54.867Z,1.83
2023-02-23T22:13:55.996Z,1.80
2023-02-23T22:17:09.026Z,1.30
2023-02-23T22:20:23.060Z,1.87
2023-02-23T22:23:36.030Z,1.57
2023-02-23T22:26:36.068Z,1.10
2023-02-23T22:29:50.051Z,1.70
2023-02-23T22:32:50.195Z,1.20
2023-02-23T22:36:17.022Z,1.60
2023-02-23T22:39:29.035Z,1.90
2023-02-23T22:42:43.079Z,1.40
2023-02-23T22:45:43.063Z,1.30
2023-02-23T22:49:08.161Z,1.60
2023-02-23T22:52:22.060Z,1.70
2023-02-23T22:55:34.149Z,1.97
2023-02-23T22:58:46.155Z,1.50
2023-02-23T23:02:11.077Z,1.30
2023-02-23T23:05:27.085Z,1.15
2023-02-23T23:08:53.108Z,1.10
2023-02-23T23:12:08.160Z,1.50
2023-02-23T23:15:33.118Z,1.47
2023-02-23T23:18:34.134Z,1.53
2023-02-23T23:21:59.169Z,1.65
2023-02-23T23:25:13.136Z,2.07
2023-02-23T23:28:26.172Z,1.40
2023-02-23T23:31:38.500Z,1.73
2023-02-23T23:34:50.244Z,1.23
2023-02-23T23:38:03.207Z,1.40
2023-02-23T23:41:30.223Z,1.65
2023-02-23T23:44:42.244Z,1.50
2023-02-23T23:48:06.245Z,1.20
2023-02-23T23:51:07.255Z,1.67
2023-02-23T23:54:32.327Z,1.30
2023-02-23T23:57:46.329Z,1.10
